Overview Statistics Trail Chart Weather Telemetry Raw packets
 

This is the latest recevied weather packets stored in our database for station/object VE3EP-1. If no packets are shown the sender has not sent any weather packets the latest 10 day(s).

<< 5 6 7 8 9 10 11 >>
Time Temp. Humidity Pressure Rain* Wind** Luminosity Snow
1788448737 23.33° C 80% 1016.2 hPa 0 mm - - -
1788448137 22.78° C 81% 1016.1 hPa 0 mm - - -
1788447537 22.78° C 81% 1016.1 hPa 0 mm - - -
1788446937 22.78° C 81% 1016.2 hPa 0 mm - - -
1788439737 21.11° C 87% 1016 hPa 0 mm - - -
1788436137 20° C 97% 1015.5 hPa 0 mm - - -
1788434338 20° C 97% 1015.3 hPa 0 mm - - -
1788383047 23.33° C 92% 1014.9 hPa 0.25 mm - - -
1788382447 23.33° C 92% 1015.4 hPa 0.25 mm - - -
1788381247 23.33° C 92% 1016.1 hPa 0.25 mm - - -
1788380647 23.33° C 91% 1015.8 hPa 0.25 mm - - -
1788378847 25° C 84% 1017.4 hPa 0 mm - - -
1788378247 25.56° C 81% 1016.8 hPa 0 mm - - -
1788377647 25° C 82% 1016.1 hPa 0 mm - - -
1788377047 25.56° C 80% 1016.2 hPa 0 mm - - -
1788375848 26.11° C 80% 1016 hPa 0 mm - - -
1788375246 25° C 81% 1015.9 hPa 0 mm - - -
1788374646 25.56° C 82% 1016.3 hPa 0 mm - - -
1788374057 25.56° C 80% 1016.3 hPa 0 mm - - -
1788373447 25.56° C 81% 1016.4 hPa 0 mm - - -
1788372847 25.56° C 82% 1016.5 hPa 0 mm - - -
1788372246 24.44° C 83% 1016.7 hPa 0 mm - - -
1788371647 26.11° C 79% 1016.5 hPa 0 mm - - -
1788371047 25° C 80% 1016.8 hPa 0 mm - - -
1788369846 24.44° C 81% 1017.2 hPa 0 mm - - -

* Rain latest hour (hover to see other rain measurements)
** Current wind speed in m/s (hover to see current wind gust speed)